Harveyville, Kansas
Current Conditions -  °F | °C
As of 9:53 AM on Friday 24 Oct 2014 (Local Time) from KFOE Reporting Station
Haze Haze  
Wind Chill: 61°   Ceiling: Unl
Heat Index: 61°   Visibility: 4mi
Dew Point: 59°   Wind: 13mph
Humidity: 93%   Direction: 190°S
Pressure: 30.03"   Gusts: NA
Location:  38.79°N, 95.96°W
Report Text: KFOE 241453Z 19011KT 4SM BR FEW005 16/15 A3003 RMK AO2 SLP166 T01610150 51002
Loading
Personal Weather Stations






























Interactive Weather Map
Tropical Storm Tracking
New forecast layout! Learn more

10-Day Weather Forecast

Advertisements
Track Severe Weather on mobile